createdAt,value
2019-02-23T00:00:24.268Z,99.90
2019-02-23T00:02:52.725Z,99.90
2019-02-23T00:05:25.084Z,99.90
2019-02-23T00:07:53.551Z,99.90
2019-02-23T00:10:27.835Z,99.90
2019-02-23T00:13:15.640Z,99.90
2019-02-23T00:15:44.100Z,99.90
2019-02-23T00:18:12.822Z,99.90
2019-02-23T00:20:41.515Z,99.90
2019-02-23T00:23:10.541Z,99.90
2019-02-23T00:25:38.967Z,99.90
2019-02-23T00:28:07.423Z,99.90
2019-02-23T00:30:35.859Z,99.90
2019-02-23T00:33:04.322Z,99.90
2019-02-23T00:35:32.763Z,99.90
2019-02-23T00:38:01.217Z,99.90
2019-02-23T00:40:29.681Z,99.90
2019-02-23T00:42:58.219Z,99.90
2019-02-23T00:45:26.658Z,99.90
2019-02-23T00:47:55.099Z,99.90
2019-02-23T00:50:23.619Z,99.90
2019-02-23T00:52:52.053Z,99.90
2019-02-23T00:55:20.509Z,99.90
2019-02-23T00:57:48.956Z,99.90
2019-02-23T01:00:17.643Z,99.90
2019-02-23T01:02:46.093Z,99.90
2019-02-23T01:05:14.551Z,99.90
2019-02-23T01:07:42.994Z,99.90
2019-02-23T01:10:30.787Z,99.90
2019-02-23T01:12:59.296Z,99.90
2019-02-23T01:15:27.742Z,99.90
2019-02-23T01:17:56.180Z,99.90
2019-02-23T01:20:24.711Z,99.90
2019-02-23T01:22:53.225Z,99.90
2019-02-23T01:25:21.681Z,99.90
2019-02-23T01:27:50.119Z,99.90
2019-02-23T01:30:18.661Z,99.90
2019-02-23T01:32:47.103Z,99.90
2019-02-23T01:35:15.631Z,99.90
2019-02-23T01:37:44.129Z,99.90
2019-02-23T01:40:12.599Z,99.90
2019-02-23T01:42:41.023Z,99.90
2019-02-23T01:45:10.205Z,99.90
2019-02-23T01:47:38.655Z,99.90
2019-02-23T01:50:26.445Z,99.90
2019-02-23T01:52:54.914Z,99.90
2019-02-23T01:55:23.427Z,99.90
2019-02-23T01:58:11.287Z,99.90
2019-02-23T02:00:40.635Z,99.90
2019-02-23T02:03:09.108Z,99.90
2019-02-23T02:05:37.548Z,99.90
2019-02-23T02:08:06.001Z,99.90
2019-02-23T02:10:34.520Z,99.90
2019-02-23T02:13:03.029Z,99.90
2019-02-23T02:15:31.641Z,99.90
2019-02-23T02:18:00.171Z,99.90
2019-02-23T02:20:28.632Z,99.90
2019-02-23T02:22:57.156Z,99.90
2019-02-23T02:25:25.591Z,99.90
2019-02-23T02:28:13.404Z,99.90
2019-02-23T02:30:41.849Z,99.90
2019-02-23T02:33:10.276Z,99.90
2019-02-23T02:35:39.743Z,99.90
2019-02-23T02:38:27.517Z,99.90
2019-02-23T02:40:55.986Z,99.90
2019-02-23T02:43:24.501Z,99.90
2019-02-23T02:45:53.088Z,99.90
2019-02-23T02:48:21.529Z,99.90
2019-02-23T02:50:49.987Z,99.90
2019-02-23T02:53:18.440Z,99.90
2019-02-23T02:55:46.895Z,99.90
2019-02-23T02:58:15.342Z,99.90
2019-02-23T03:00:43.816Z,99.90
2019-02-23T03:03:12.278Z,99.90
2019-02-23T03:05:40.734Z,99.90
2019-02-23T03:08:09.247Z,99.90
2019-02-23T03:10:37.697Z,99.90
2019-02-23T03:13:06.132Z,99.90
2019-02-23T03:15:34.601Z,99.90
2019-02-23T03:18:03.040Z,99.90
2019-02-23T03:20:36.601Z,99.90
2019-02-23T03:23:01.672Z,99.90
2019-02-23T03:25:30.181Z,99.90
2019-02-23T03:27:58.634Z,99.90
2019-02-23T03:30:27.072Z,99.90
2019-02-23T03:32:55.537Z,99.90
2019-02-23T03:35:23.971Z,99.90
2019-02-23T03:37:52.419Z,99.90
2019-02-23T03:40:20.924Z,99.90
2019-02-23T03:42:49.484Z,99.90
2019-02-23T03:45:17.919Z,99.90
2019-02-23T03:47:46.460Z,99.90
2019-02-23T03:50:14.908Z,99.90
2019-02-23T03:52:43.373Z,99.90
2019-02-23T03:55:11.983Z,99.90
2019-02-23T03:57:40.442Z,99.90
2019-02-23T04:00:10.327Z,99.90
2019-02-23T04:02:38.853Z,99.90
2019-02-23T04:05:07.366Z,99.90
2019-02-23T04:07:35.883Z,99.90
2019-02-23T04:10:06.261Z,99.90
2019-02-23T04:12:40.534Z,99.90
2019-02-23T04:15:09.235Z,99.90
2019-02-23T04:17:37.792Z,99.90
2019-02-23T04:20:07.829Z,99.90
2019-02-23T04:22:36.287Z,99.90
2019-02-23T04:25:07.360Z,99.90
2019-02-23T04:27:35.815Z,99.90
2019-02-23T04:30:06.027Z,99.90
2019-02-23T04:32:34.562Z,99.90
2019-02-23T04:35:02.995Z,99.90
2019-02-23T04:37:31.437Z,99.90
2019-02-23T04:39:59.897Z,99.90
2019-02-23T04:42:28.323Z,99.90
2019-02-23T04:44:56.867Z,99.90
2019-02-23T04:47:25.372Z,99.90
2019-02-23T04:49:54.967Z,99.90
2019-02-23T04:52:23.405Z,99.90
2019-02-23T04:54:51.859Z,99.90
2019-02-23T04:57:20.309Z,99.90
2019-02-23T04:59:48.764Z,99.90
2019-02-23T05:02:17.205Z,99.90
2019-02-23T05:04:45.659Z,99.90
2019-02-23T05:07:14.108Z,99.90
2019-02-23T05:09:42.585Z,99.90
2019-02-23T05:12:11.096Z,99.90
2019-02-23T05:14:39.566Z,99.90
2019-02-23T05:17:08.072Z,99.90
2019-02-23T05:19:36.549Z,99.90
2019-02-23T05:22:05.036Z,99.90
2019-02-23T05:24:33.480Z,99.90
2019-02-23T05:27:01.943Z,99.90
2019-02-23T05:29:30.387Z,99.90
2019-02-23T05:31:58.897Z,99.90
2019-02-23T05:34:27.391Z,99.90
2019-02-23T05:36:55.852Z,99.90
2019-02-23T05:39:24.435Z,99.90
2019-02-23T05:41:54.886Z,99.90
2019-02-23T05:44:23.355Z,99.90
2019-02-23T05:46:51.815Z,99.90
2019-02-23T05:49:20.260Z,99.90
2019-02-23T05:51:48.720Z,99.90
2019-02-23T05:54:17.167Z,99.90
2019-02-23T05:56:45.624Z,99.90
2019-02-23T05:59:14.088Z,99.90
2019-02-23T06:01:42.592Z,99.90
2019-02-23T06:04:11.028Z,99.90
2019-02-23T06:06:39.492Z,99.90
2019-02-23T06:09:07.927Z,99.90
2019-02-23T06:11:36.391Z,99.90
2019-02-23T06:14:04.835Z,99.90
2019-02-23T06:16:33.283Z,99.90
2019-02-23T06:19:01.720Z,99.90
2019-02-23T06:21:30.268Z,99.90
2019-02-23T06:23:58.723Z,99.90
2019-02-23T06:26:27.195Z,99.90
2019-02-23T06:28:55.639Z,99.90
2019-02-23T06:31:24.104Z,99.90
2019-02-23T06:33:52.564Z,99.90
2019-02-23T06:36:21.003Z,99.90
2019-02-23T06:38:49.460Z,99.90
2019-02-23T06:41:17.898Z,99.90
2019-02-23T06:43:46.352Z,99.90
2019-02-23T06:46:14.807Z,99.90
2019-02-23T06:48:43.400Z,99.90
2019-02-23T06:51:31.171Z,99.90
2019-02-23T06:53:59.623Z,99.90
2019-02-23T06:56:28.063Z,99.90
2019-02-23T06:58:56.533Z,99.90
2019-02-23T07:01:25.116Z,99.90
2019-02-23T07:03:53.565Z,99.90
2019-02-23T07:06:22.043Z,99.90
2019-02-23T07:08:50.512Z,99.90
2019-02-23T07:11:18.963Z,99.90
2019-02-23T07:13:47.451Z,99.90
2019-02-23T07:16:15.915Z,99.90
2019-02-23T07:18:44.381Z,99.90
2019-02-23T07:21:12.812Z,99.90
2019-02-23T07:23:41.271Z,99.90
2019-02-23T07:26:09.732Z,99.90
2019-02-23T07:28:38.160Z,99.90
2019-02-23T07:31:06.620Z,99.90
2019-02-23T07:33:35.123Z,99.90
2019-02-23T07:36:03.626Z,99.90
2019-02-23T07:38:35.451Z,99.90
2019-02-23T07:41:03.255Z,99.90
2019-02-23T07:43:31.692Z,99.90
2019-02-23T07:46:00.152Z,99.90
2019-02-23T07:48:30.133Z,99.90
2019-02-23T07:50:58.571Z,99.90
2019-02-23T07:53:27.031Z,99.90
2019-02-23T07:55:55.498Z,99.90
2019-02-23T07:58:24.916Z,99.90
2019-02-23T08:01:12.711Z,99.90
2019-02-23T08:03:41.176Z,99.90
2019-02-23T08:06:09.623Z,99.90
2019-02-23T08:08:38.135Z,99.90
2019-02-23T08:11:06.664Z,99.90
2019-02-23T08:13:35.103Z,99.90
2019-02-23T08:16:03.649Z,99.90
2019-02-23T08:18:32.112Z,99.90
2019-02-23T08:21:00.557Z,99.90
2019-02-23T08:23:29.096Z,99.90
2019-02-23T08:25:57.536Z,99.90
2019-02-23T08:28:26.000Z,99.90
2019-02-23T08:30:54.458Z,99.90
2019-02-23T08:33:22.975Z,99.90
2019-02-23T08:35:51.415Z,99.90
2019-02-23T08:38:19.884Z,99.90
2019-02-23T08:40:48.322Z,99.90
2019-02-23T08:43:16.790Z,99.90
2019-02-23T08:45:45.236Z,99.90
2019-02-23T08:48:13.667Z,99.90
2019-02-23T08:50:42.117Z,99.90
2019-02-23T08:53:10.547Z,99.90
2019-02-23T08:55:38.990Z,99.90
2019-02-23T08:58:07.444Z,99.90
2019-02-23T09:00:35.904Z,99.90
2019-02-23T09:03:09.965Z,99.90
2019-02-23T09:05:38.419Z,99.90
2019-02-23T09:08:06.872Z,99.90
2019-02-23T09:10:35.329Z,99.90
2019-02-23T09:13:03.793Z,99.90
2019-02-23T09:15:32.236Z,99.90
2019-02-23T09:18:00.692Z,99.90
2019-02-23T09:20:29.749Z,99.90
2019-02-23T09:23:00.449Z,99.90
2019-02-23T09:25:28.620Z,99.90
2019-02-23T09:27:57.072Z,99.90
2019-02-23T09:30:25.536Z,99.90
2019-02-23T09:32:54.115Z,99.90
2019-02-23T09:35:23.739Z,99.90
2019-02-23T09:37:53.318Z,99.90
2019-02-23T09:40:21.923Z,99.90
2019-02-23T09:42:50.525Z,99.90
2019-02-23T09:45:19.207Z,99.90
2019-02-23T09:47:47.754Z,99.90
2019-02-23T09:50:16.292Z,99.90
2019-02-23T09:52:44.856Z,99.90
2019-02-23T09:55:13.435Z,99.90
2019-02-23T09:57:42.020Z,99.90
2019-02-23T10:00:14.020Z,99.90
2019-02-23T10:02:42.603Z,99.90
2019-02-23T10:05:11.220Z,99.90
2019-02-23T10:07:39.907Z,99.90
2019-02-23T10:10:27.697Z,99.90
2019-02-23T10:12:56.178Z,99.90
2019-02-23T10:15:24.620Z,99.90
2019-02-23T10:17:53.110Z,99.90
2019-02-23T10:20:21.615Z,99.90
2019-02-23T10:23:09.492Z,99.90
2019-02-23T10:25:50.520Z,99.90
2019-02-23T10:28:19.074Z,99.90
2019-02-23T10:30:47.534Z,99.90
2019-02-23T10:33:17.768Z,99.90
2019-02-23T10:35:46.207Z,99.90
2019-02-23T10:38:14.864Z,99.90
2019-02-23T10:40:43.469Z,99.90
2019-02-23T10:43:11.928Z,99.90
2019-02-23T10:45:40.476Z,99.90
2019-02-23T10:48:08.971Z,99.90
2019-02-23T10:50:37.904Z,99.90
2019-02-23T10:53:06.927Z,99.90
2019-02-23T10:55:35.446Z,99.90
2019-02-23T10:58:03.979Z,99.90
2019-02-23T11:00:32.562Z,99.90
2019-02-23T11:03:01.089Z,99.90
2019-02-23T11:05:29.670Z,99.90
2019-02-23T11:07:58.267Z,99.90
2019-02-23T11:10:26.764Z,99.90
2019-02-23T11:12:55.309Z,99.90
2019-02-23T11:15:24.055Z,99.90
2019-02-23T11:17:52.599Z,99.90
2019-02-23T11:20:28.851Z,99.90
2019-02-23T11:22:57.446Z,99.90
2019-02-23T11:25:25.963Z,99.90
2019-02-23T11:27:54.549Z,99.90
2019-02-23T11:30:23.022Z,99.90
2019-02-23T11:32:51.528Z,99.90
2019-02-23T11:35:19.995Z,99.90
2019-02-23T11:37:50.410Z,99.90
2019-02-23T11:40:18.863Z,99.90
2019-02-23T11:42:47.386Z,99.90
2019-02-23T11:45:15.867Z,99.90
2019-02-23T11:47:44.302Z,99.90
2019-02-23T11:50:16.075Z,99.90
2019-02-23T11:52:44.667Z,99.90
2019-02-23T11:55:32.455Z,99.90
2019-02-23T11:58:00.903Z,99.90
2019-02-23T12:00:29.354Z,99.90
2019-02-23T12:02:57.862Z,99.30
2019-02-23T12:05:26.396Z,98.80
2019-02-23T12:07:54.839Z,98.10
2019-02-23T12:10:23.372Z,98.50
2019-02-23T12:12:51.834Z,98.00
2019-02-23T12:15:20.404Z,96.80
2019-02-23T12:17:48.955Z,96.00
2019-02-23T12:20:17.423Z,96.20
2019-02-23T12:22:45.895Z,95.90
2019-02-23T12:25:16.221Z,95.90
2019-02-23T12:27:44.731Z,95.60
2019-02-23T12:30:13.243Z,95.50
2019-02-23T12:32:41.711Z,95.40
2019-02-23T12:35:11.204Z,94.30
2019-02-23T12:37:39.831Z,94.00
2019-02-23T12:40:09.809Z,92.50
2019-02-23T12:42:38.291Z,92.20
2019-02-23T12:45:28.367Z,91.70
2019-02-23T12:47:56.314Z,91.30
2019-02-23T12:50:24.811Z,90.30
2019-02-23T12:53:12.613Z,86.50
2019-02-23T12:55:41.047Z,87.00
2019-02-23T12:58:09.594Z,86.60
2019-02-23T13:00:38.107Z,86.30
2019-02-23T13:03:06.623Z,85.40
2019-02-23T13:05:35.071Z,84.40
2019-02-23T13:08:22.881Z,84.40
2019-02-23T13:10:52.976Z,80.80
2019-02-23T13:13:47.271Z,79.40
2019-02-23T13:16:21.779Z,79.50
2019-02-23T13:19:05.221Z,79.40
2019-02-23T13:21:51.724Z,79.30
2019-02-23T13:24:38.167Z,79.30
2019-02-23T13:27:12.756Z,78.40
2019-02-23T13:29:56.120Z,77.40
2019-02-23T13:32:54.671Z,76.10
2019-02-23T13:35:59.285Z,75.40
2019-02-23T13:38:39.460Z,75.90
2019-02-23T13:41:28.891Z,75.20
2019-02-23T13:44:03.224Z,74.50
2019-02-23T13:46:54.258Z,76.40
2019-02-23T13:49:56.063Z,77.50
2019-02-23T13:52:30.300Z,79.20
2019-02-23T13:55:01.839Z,75.30
2019-02-23T13:57:45.067Z,76.50
2019-02-23T14:00:25.640Z,76.30
2019-02-23T14:03:02.860Z,76.20
2019-02-23T14:05:39.926Z,76.90
2019-02-23T14:08:24.768Z,74.90
2019-02-23T14:11:28.193Z,75.40
2019-02-23T14:14:02.343Z,75.10
2019-02-23T14:16:42.687Z,75.30
2019-02-23T14:19:39.786Z,71.80
2019-02-23T14:22:20.948Z,72.10
2019-02-23T14:25:07.180Z,71.50
2019-02-23T14:27:55.652Z,71.60
2019-02-23T14:30:43.990Z,71.50
2019-02-23T14:33:18.335Z,69.50
2019-02-23T14:36:01.643Z,67.10
2019-02-23T14:38:51.080Z,66.70
2019-02-23T14:41:42.120Z,65.00
2019-02-23T14:44:16.631Z,64.90
2019-02-23T14:47:00.051Z,64.50
2019-02-23T14:49:43.571Z,64.60
2019-02-23T14:52:34.717Z,67.70
2019-02-23T14:55:06.266Z,70.80
2019-02-23T14:57:57.487Z,73.50
2019-02-23T15:00:34.595Z,75.50
2019-02-23T15:03:39.972Z,78.20
2019-02-23T15:06:17.379Z,80.50
2019-02-23T15:09:10.131Z,82.50
2019-02-23T15:11:50.217Z,84.10
2019-02-23T15:14:24.577Z,84.80
2019-02-23T15:17:21.940Z,85.80
2019-02-23T15:20:27.095Z,86.30
2019-02-23T15:23:04.497Z,87.20
2019-02-23T15:25:57.343Z,87.00
2019-02-23T15:28:37.678Z,87.00
2019-02-23T15:31:22.841Z,87.80
2019-02-23T15:34:18.664Z,88.60
2019-02-23T15:37:00.672Z,88.80
2019-02-23T15:39:48.600Z,89.30
2019-02-23T15:42:25.736Z,88.60
2019-02-23T15:45:22.950Z,88.80
2019-02-23T15:47:57.335Z,89.90
2019-02-23T15:50:25.931Z,90.60
2019-02-23T15:52:54.609Z,90.20
2019-02-23T15:55:26.224Z,90.60
2019-02-23T15:57:53.213Z,90.10
2019-02-23T16:00:21.760Z,90.10
2019-02-23T16:02:50.285Z,90.40
2019-02-23T16:05:18.890Z,90.50
2019-02-23T16:07:47.398Z,90.80
2019-02-23T16:10:17.837Z,90.50
2019-02-23T16:12:46.160Z,90.70
2019-02-23T16:15:14.769Z,91.10
2019-02-23T16:17:43.243Z,91.00
2019-02-23T16:20:11.856Z,91.30
2019-02-23T16:22:40.303Z,91.60
2019-02-23T16:25:08.991Z,90.70
2019-02-23T16:27:37.572Z,90.70
2019-02-23T16:30:09.362Z,91.10
2019-02-23T16:32:57.167Z,90.90
2019-02-23T16:35:25.669Z,90.90
2019-02-23T16:37:54.129Z,91.30
2019-02-23T16:40:22.566Z,91.20
2019-02-23T16:43:10.366Z,91.50
2019-02-23T16:45:39.672Z,91.20
2019-02-23T16:48:08.101Z,91.20
2019-02-23T16:50:36.551Z,91.40
2019-02-23T16:53:05.065Z,91.40
2019-02-23T16:55:33.531Z,91.30
2019-02-23T16:58:02.035Z,91.20
2019-02-23T17:00:30.491Z,91.30
2019-02-23T17:02:58.942Z,91.60
2019-02-23T17:05:27.404Z,91.50
2019-02-23T17:07:55.840Z,91.50
2019-02-23T17:10:24.298Z,91.90
2019-02-23T17:12:52.758Z,92.00
2019-02-23T17:15:21.280Z,92.10
2019-02-23T17:17:49.788Z,92.20
2019-02-23T17:20:18.283Z,92.10
2019-02-23T17:22:46.786Z,92.20
2019-02-23T17:25:15.250Z,92.50
2019-02-23T17:27:43.679Z,92.40
2019-02-23T17:30:12.148Z,92.30
2019-02-23T17:32:40.589Z,92.60
2019-02-23T17:35:09.194Z,92.50
2019-02-23T17:37:39.284Z,92.60
2019-02-23T17:40:08.563Z,92.80
2019-02-23T17:42:37.060Z,93.40
2019-02-23T17:45:08.710Z,94.00
2019-02-23T17:47:37.228Z,94.10
2019-02-23T17:50:08.064Z,94.50
2019-02-23T17:52:36.548Z,94.70
2019-02-23T17:55:07.562Z,94.70
2019-02-23T17:57:36.045Z,95.00
2019-02-23T18:00:06.579Z,95.00
2019-02-23T18:02:35.090Z,95.20
2019-02-23T18:05:04.044Z,95.30
2019-02-23T18:07:32.496Z,95.10
2019-02-23T18:10:00.927Z,95.40
2019-02-23T18:12:29.763Z,95.50
2019-02-23T18:14:58.313Z,95.30
2019-02-23T18:17:26.779Z,95.30
2019-02-23T18:19:55.227Z,95.10
2019-02-23T18:22:43.024Z,95.20
2019-02-23T18:25:11.461Z,95.30
2019-02-23T18:27:39.926Z,95.70
2019-02-23T18:30:12.419Z,95.80
2019-02-23T18:32:40.869Z,95.60
2019-02-23T18:35:09.665Z,95.80
2019-02-23T18:37:38.130Z,95.80
2019-02-23T18:40:08.154Z,95.80
2019-02-23T18:42:56.108Z,95.90
2019-02-23T18:45:25.108Z,96.10
2019-02-23T18:47:53.548Z,96.00
2019-02-23T18:50:22.103Z,96.20
2019-02-23T18:52:50.567Z,96.40
2019-02-23T18:55:19.201Z,96.20
2019-02-23T18:57:48.228Z,96.10
2019-02-23T19:00:24.172Z,96.30
2019-02-23T19:02:47.035Z,96.40
2019-02-23T19:05:15.760Z,96.50
2019-02-23T19:07:44.303Z,96.50
2019-02-23T19:10:14.096Z,96.60
2019-02-23T19:12:42.531Z,96.50
2019-02-23T19:15:14.289Z,96.60
2019-02-23T19:17:45.519Z,96.60
2019-02-23T19:20:14.920Z,96.90
2019-02-23T19:23:02.779Z,97.00
2019-02-23T19:25:31.283Z,97.00
2019-02-23T19:27:59.740Z,97.10
2019-02-23T19:30:28.189Z,97.00
2019-02-23T19:32:56.718Z,97.50
2019-02-23T19:35:31.959Z,97.50
2019-02-23T19:38:00.499Z,97.60
2019-02-23T19:40:28.990Z,97.50
2019-02-23T19:42:57.468Z,97.80
2019-02-23T19:45:25.955Z,98.20
2019-02-23T19:47:54.529Z,98.50
2019-02-23T19:50:32.047Z,98.60
2019-02-23T19:53:00.530Z,98.60
2019-02-23T19:55:29.083Z,98.80
2019-02-23T19:57:57.618Z,98.90
2019-02-23T20:00:26.111Z,99.20
2019-02-23T20:02:54.627Z,99.20
2019-02-23T20:05:23.617Z,99.30
2019-02-23T20:07:52.751Z,99.70
2019-02-23T20:10:21.307Z,99.60
2019-02-23T20:12:49.978Z,99.50
2019-02-23T20:15:18.473Z,99.70
2019-02-23T20:17:46.923Z,99.80
2019-02-23T20:20:15.357Z,99.90
2019-02-23T20:22:43.820Z,99.90
2019-02-23T20:25:13.318Z,99.90
2019-02-23T20:27:41.813Z,99.90
2019-02-23T20:30:11.491Z,99.90
2019-02-23T20:32:39.935Z,99.90
2019-02-23T20:35:27.729Z,99.90
2019-02-23T20:37:56.255Z,99.90
2019-02-23T20:40:24.695Z,99.90
2019-02-23T20:43:12.507Z,99.90
2019-02-23T20:45:40.938Z,99.90
2019-02-23T20:48:09.458Z,99.90
2019-02-23T20:50:37.992Z,99.90
2019-02-23T20:53:06.499Z,99.90
2019-02-23T20:55:34.951Z,99.90
2019-02-23T20:58:03.394Z,99.90
2019-02-23T21:00:31.871Z,99.90
2019-02-23T21:03:00.464Z,99.90
2019-02-23T21:05:28.920Z,99.90
2019-02-23T21:07:57.355Z,99.90
2019-02-23T21:10:32.699Z,99.90
2019-02-23T21:13:20.561Z,99.90
2019-02-23T21:15:49.121Z,99.90
2019-02-23T21:18:17.562Z,99.90
2019-02-23T21:20:47.013Z,99.90
2019-02-23T21:23:16.936Z,99.90
2019-02-23T21:25:45.400Z,99.90
2019-02-23T21:28:13.836Z,99.90
2019-02-23T21:30:42.298Z,99.90
2019-02-23T21:33:10.732Z,99.90
2019-02-23T21:35:39.215Z,99.90
2019-02-23T21:38:07.733Z,99.90
2019-02-23T21:40:36.272Z,99.90
2019-02-23T21:43:04.776Z,99.90
2019-02-23T21:45:33.222Z,99.90
2019-02-23T21:48:01.698Z,99.90
2019-02-23T21:50:30.196Z,99.90
2019-02-23T21:52:58.645Z,99.90
2019-02-23T21:55:27.092Z,99.90
2019-02-23T21:57:55.535Z,99.90
2019-02-23T22:00:24.020Z,99.90
2019-02-23T22:02:52.595Z,99.90
2019-02-23T22:05:21.031Z,99.90
2019-02-23T22:07:49.573Z,99.90
2019-02-23T22:10:18.150Z,99.90
2019-02-23T22:12:46.677Z,99.90
2019-02-23T22:15:15.116Z,99.90
2019-02-23T22:17:43.591Z,99.90
2019-02-23T22:20:12.252Z,99.90
2019-02-23T22:22:40.719Z,99.90
2019-02-23T22:25:09.311Z,99.90
2019-02-23T22:27:37.785Z,99.90
2019-02-23T22:30:10.559Z,99.90
2019-02-23T22:32:39.022Z,99.90
2019-02-23T22:35:07.671Z,99.90
2019-02-23T22:37:36.108Z,99.90
2019-02-23T22:40:06.204Z,99.90
2019-02-23T22:42:43.798Z,99.90
2019-02-23T22:45:14.411Z,99.90
2019-02-23T22:47:42.883Z,99.90
2019-02-23T22:50:11.427Z,99.90
2019-02-23T22:52:43.647Z,99.90
2019-02-23T22:55:14.197Z,99.90
2019-02-23T22:57:49.424Z,99.90
2019-02-23T23:00:19.544Z,99.90
2019-02-23T23:02:48.048Z,99.90
2019-02-23T23:05:16.640Z,99.90
2019-02-23T23:08:04.416Z,99.90
2019-02-23T23:10:32.940Z,99.60
2019-02-23T23:13:01.376Z,99.40
2019-02-23T23:15:29.950Z,99.40
2019-02-23T23:17:58.404Z,99.40
2019-02-23T23:20:30.939Z,99.20
2019-02-23T23:23:06.895Z,99.00
2019-02-23T23:25:35.344Z,98.80
2019-02-23T23:28:03.884Z,98.70
2019-02-23T23:30:32.409Z,98.50
2019-02-23T23:33:00.862Z,98.40
2019-02-23T23:35:29.304Z,98.60
2019-02-23T23:37:57.752Z,98.60
2019-02-23T23:40:26.180Z,98.50
2019-02-23T23:42:58.137Z,98.40
2019-02-23T23:45:24.809Z,98.20
2019-02-23T23:47:53.268Z,98.30
2019-02-23T23:50:21.720Z,98.50
2019-02-23T23:52:50.247Z,98.40
2019-02-23T23:55:18.696Z,98.30
2019-02-23T23:57:47.131Z,98.30
